Cavern City Air Terminal
KCNM : now visible

Airfield :











YOU CAN JOIN US ON...

 
LOGIN :

Register | Disclaimer

   EN    FR    IT 

 









Legend :    VFR   Marginal VFR   IFR   Intensive IFR   Very Intensive IFR
Visi :
Ceiling :
>= 8 km
>= 3000ft
5 to 8 km
1000 to 3000 ft
1500m to 5 km
500 to 1000 ft
800 to 1500m
200 to 500 ft
< 800m
< 200 ft
Symbols :   Thunderstorms  Fog  Heavy snow  Heavy precipitations  Wind > 20 kt






- Airport Elevation : 3295 ft
- IATA code : CNM


KCNM - Cavern City Air Terminal

CURRENT METAR :
  • 181153Z AUTO 28009KT 10SM CLR 05/M02 A3027 RMK AO2 SLP226 T00501022 10139 20050 51035

EXPIRED METARs :
  • 181053Z AUTO 31010KT 10SM CLR 06/M01 A3023 RMK AO2 SLP211 T00561011
  • 180953Z AUTO 32013KT 10SM CLR 07/M01 A3020 RMK AO2 SLP202 T00671011

TAF KCNM
Valid from the 18 at 12:00 until the 19 at 12:00 UTC


181124Z 1812/1912 33010KT P6SM SKC
FM181700 06008KT P6SM SKC



MET'MAP, your aeronautical weather chart ! - Copyright ORBIFLY December 2007 - Disclaimer

ORBIFLY MET'MAP TEAM :

Programming & Development : Alexandra Zaïnal
Concept & original design : Baudouin d'Aumeries
Assistance for programming : Marc-Olivier Méhu
Technical & hardware support : Manuel Goepfert

Contact : metmap@orbifly.com




SOURCES & CREDITS :

   NOAA       Earth
Advisory